sensor_id;sensor_type;location;lat;lon;timestamp;pressure;altitude;pressure_sealevel;temperature;humidity
16355;BME280;8287;51.644;8.494;2023-04-15T00:01:19;99657.72;;;8.78;72.48
16355;BME280;8287;51.644;8.494;2023-04-15T00:03:47;99652.91;;;8.72;72.99
16355;BME280;8287;51.644;8.494;2023-04-15T00:06:15;99650.84;;;8.60;73.80
16355;BME280;8287;51.644;8.494;2023-04-15T00:08:41;99653.00;;;8.58;73.85
16355;BME280;8287;51.644;8.494;2023-04-15T00:11:08;99650.66;;;8.48;73.85
16355;BME280;8287;51.644;8.494;2023-04-15T00:13:35;99656.28;;;8.55;74.13
16355;BME280;8287;51.644;8.494;2023-04-15T00:16:02;99647.25;;;8.48;74.51
16355;BME280;8287;51.644;8.494;2023-04-15T00:18:28;99644.28;;;8.41;74.55
16355;BME280;8287;51.644;8.494;2023-04-15T00:20:55;99647.66;;;8.33;74.91
16355;BME280;8287;51.644;8.494;2023-04-15T00:23:23;99646.09;;;8.32;75.33
16355;BME280;8287;51.644;8.494;2023-04-15T00:25:50;99650.25;;;8.24;75.15
16355;BME280;8287;51.644;8.494;2023-04-15T00:28:17;99649.84;;;8.31;75.08
16355;BME280;8287;51.644;8.494;2023-04-15T00:30:43;99638.94;;;8.32;75.41
16355;BME280;8287;51.644;8.494;2023-04-15T00:33:11;99641.00;;;8.35;75.74
16355;BME280;8287;51.644;8.494;2023-04-15T00:35:38;99639.44;;;8.34;75.14
16355;BME280;8287;51.644;8.494;2023-04-15T00:38:05;99640.03;;;8.31;75.49
16355;BME280;8287;51.644;8.494;2023-04-15T00:40:34;99635.09;;;8.30;75.37
16355;BME280;8287;51.644;8.494;2023-04-15T00:43:01;99633.34;;;8.25;74.74
16355;BME280;8287;51.644;8.494;2023-04-15T00:45:28;99627.22;;;8.16;74.62
16355;BME280;8287;51.644;8.494;2023-04-15T00:47:56;99631.09;;;8.10;74.85
16355;BME280;8287;51.644;8.494;2023-04-15T00:50:22;99630.59;;;8.08;74.90
16355;BME280;8287;51.644;8.494;2023-04-15T00:52:49;99628.28;;;8.07;74.80
16355;BME280;8287;51.644;8.494;2023-04-15T00:55:16;99627.19;;;8.08;74.50
16355;BME280;8287;51.644;8.494;2023-04-15T00:57:44;99625.25;;;7.91;75.14
16355;BME280;8287;51.644;8.494;2023-04-15T01:00:12;99623.41;;;7.92;76.44
16355;BME280;8287;51.644;8.494;2023-04-15T01:02:39;99634.06;;;7.87;76.40
16355;BME280;8287;51.644;8.494;2023-04-15T01:05:06;99621.66;;;7.87;76.56
16355;BME280;8287;51.644;8.494;2023-04-15T01:07:33;99624.47;;;7.91;76.85
16355;BME280;8287;51.644;8.494;2023-04-15T01:10:00;99620.38;;;7.76;76.77
16355;BME280;8287;51.644;8.494;2023-04-15T01:12:27;99627.28;;;7.64;77.24
16355;BME280;8287;51.644;8.494;2023-04-15T01:14:55;99622.00;;;7.64;77.85
16355;BME280;8287;51.644;8.494;2023-04-15T01:17:23;99619.66;;;7.62;77.32
16355;BME280;8287;51.644;8.494;2023-04-15T01:19:50;99625.38;;;7.56;76.95
16355;BME280;8287;51.644;8.494;2023-04-15T01:22:16;99617.53;;;7.42;77.38
16355;BME280;8287;51.644;8.494;2023-04-15T01:24:47;99625.31;;;7.47;77.64
16355;BME280;8287;51.644;8.494;2023-04-15T01:27:16;99626.03;;;7.39;78.35
16355;BME280;8287;51.644;8.494;2023-04-15T01:29:42;99624.94;;;7.40;78.27
16355;BME280;8287;51.644;8.494;2023-04-15T01:32:09;99619.19;;;7.38;77.99
16355;BME280;8287;51.644;8.494;2023-04-15T01:34:36;99629.56;;;7.35;78.26
16355;BME280;8287;51.644;8.494;2023-04-15T01:37:02;99624.47;;;7.38;78.64
16355;BME280;8287;51.644;8.494;2023-04-15T01:39:29;99626.63;;;7.36;78.49
16355;BME280;8287;51.644;8.494;2023-04-15T01:41:55;99636.44;;;7.22;78.27
16355;BME280;8287;51.644;8.494;2023-04-15T01:44:24;99635.19;;;7.20;77.87
16355;BME280;8287;51.644;8.494;2023-04-15T01:46:50;99638.41;;;7.17;77.26
16355;BME280;8287;51.644;8.494;2023-04-15T01:49:17;99641.28;;;7.07;78.36
16355;BME280;8287;51.644;8.494;2023-04-15T01:51:44;99642.28;;;6.97;78.82
16355;BME280;8287;51.644;8.494;2023-04-15T01:54:10;99645.03;;;6.92;79.17
16355;BME280;8287;51.644;8.494;2023-04-15T01:56:37;99647.25;;;6.99;78.48
16355;BME280;8287;51.644;8.494;2023-04-15T01:59:04;99637.31;;;6.96;78.32
16355;BME280;8287;51.644;8.494;2023-04-15T02:01:31;99642.88;;;6.94;78.07
16355;BME280;8287;51.644;8.494;2023-04-15T02:03:58;99649.31;;;6.88;78.75
16355;BME280;8287;51.644;8.494;2023-04-15T02:06:25;99653.13;;;6.82;79.29
16355;BME280;8287;51.644;8.494;2023-04-15T02:08:52;99658.03;;;6.75;79.06
16355;BME280;8287;51.644;8.494;2023-04-15T02:11:18;99655.41;;;6.75;79.17
16355;BME280;8287;51.644;8.494;2023-04-15T02:13:45;99660.06;;;6.78;78.64
16355;BME280;8287;51.644;8.494;2023-04-15T02:16:15;99660.94;;;6.74;79.22
16355;BME280;8287;51.644;8.494;2023-04-15T02:18:44;99666.31;;;6.69;79.13
16355;BME280;8287;51.644;8.494;2023-04-15T02:21:11;99660.38;;;6.63;79.11
16355;BME280;8287;51.644;8.494;2023-04-15T02:23:37;99667.31;;;6.59;79.90
16355;BME280;8287;51.644;8.494;2023-04-15T02:26:04;99659.97;;;6.56;79.78
16355;BME280;8287;51.644;8.494;2023-04-15T02:28:30;99668.00;;;6.51;79.77
16355;BME280;8287;51.644;8.494;2023-04-15T02:30:57;99665.38;;;6.51;79.62
16355;BME280;8287;51.644;8.494;2023-04-15T02:33:24;99669.16;;;6.45;79.64
16355;BME280;8287;51.644;8.494;2023-04-15T02:35:53;99674.81;;;6.52;79.39
16355;BME280;8287;51.644;8.494;2023-04-15T02:38:19;99676.75;;;6.47;79.88
16355;BME280;8287;51.644;8.494;2023-04-15T02:40:46;99672.59;;;6.46;79.61
16355;BME280;8287;51.644;8.494;2023-04-15T02:43:13;99673.16;;;6.43;79.90
16355;BME280;8287;51.644;8.494;2023-04-15T02:45:41;99673.53;;;6.37;79.69
16355;BME280;8287;51.644;8.494;2023-04-15T02:48:08;99673.63;;;6.32;79.87
16355;BME280;8287;51.644;8.494;2023-04-15T02:50:35;99678.13;;;6.31;78.97
16355;BME280;8287;51.644;8.494;2023-04-15T02:53:05;99675.69;;;6.35;78.38
16355;BME280;8287;51.644;8.494;2023-04-15T02:55:31;99673.63;;;6.32;77.90
16355;BME280;8287;51.644;8.494;2023-04-15T02:57:58;99672.38;;;6.29;78.30
16355;BME280;8287;51.644;8.494;2023-04-15T03:00:25;99673.13;;;6.30;77.15
16355;BME280;8287;51.644;8.494;2023-04-15T03:02:57;99671.31;;;6.30;76.89
16355;BME280;8287;51.644;8.494;2023-04-15T03:05:24;99664.84;;;6.23;77.22
16355;BME280;8287;51.644;8.494;2023-04-15T03:07:50;99680.34;;;6.24;77.29
16355;BME280;8287;51.644;8.494;2023-04-15T03:10:19;99671.66;;;6.24;77.53
16355;BME280;8287;51.644;8.494;2023-04-15T03:12:46;99671.84;;;6.14;77.76
16355;BME280;8287;51.644;8.494;2023-04-15T03:15:13;99666.19;;;6.07;78.65
16355;BME280;8287;51.644;8.494;2023-04-15T03:17:39;99674.47;;;6.00;79.36
16355;BME280;8287;51.644;8.494;2023-04-15T03:20:06;99669.22;;;6.00;79.56
16355;BME280;8287;51.644;8.494;2023-04-15T03:22:33;99681.38;;;5.96;79.74
16355;BME280;8287;51.644;8.494;2023-04-15T03:25:00;99672.50;;;5.92;80.47
16355;BME280;8287;51.644;8.494;2023-04-15T03:27:28;99678.97;;;6.00;79.48
16355;BME280;8287;51.644;8.494;2023-04-15T03:29:54;99678.84;;;6.05;79.21
16355;BME280;8287;51.644;8.494;2023-04-15T03:32:21;99683.63;;;6.03;79.23
16355;BME280;8287;51.644;8.494;2023-04-15T03:34:48;99666.59;;;6.00;79.48
16355;BME280;8287;51.644;8.494;2023-04-15T03:37:14;99672.03;;;6.04;79.21
16355;BME280;8287;51.644;8.494;2023-04-15T03:39:41;99667.38;;;6.01;79.39
16355;BME280;8287;51.644;8.494;2023-04-15T03:42:07;99662.13;;;6.01;79.68
16355;BME280;8287;51.644;8.494;2023-04-15T03:44:35;99668.53;;;5.95;79.93
16355;BME280;8287;51.644;8.494;2023-04-15T03:47:02;99677.09;;;6.00;79.94
16355;BME280;8287;51.644;8.494;2023-04-15T03:49:29;99668.94;;;6.02;79.99
16355;BME280;8287;51.644;8.494;2023-04-15T03:51:55;99672.72;;;5.96;80.14
16355;BME280;8287;51.644;8.494;2023-04-15T03:54:22;99674.25;;;5.97;80.11
16355;BME280;8287;51.644;8.494;2023-04-15T03:56:48;99679.06;;;6.08;79.20
16355;BME280;8287;51.644;8.494;2023-04-15T03:59:15;99679.84;;;6.09;79.65
16355;BME280;8287;51.644;8.494;2023-04-15T04:01:43;99681.97;;;6.07;80.88
16355;BME280;8287;51.644;8.494;2023-04-15T04:04:10;99681.66;;;5.95;81.72
16355;BME280;8287;51.644;8.494;2023-04-15T04:06:36;99688.97;;;5.98;81.99
16355;BME280;8287;51.644;8.494;2023-04-15T04:09:03;99697.53;;;6.03;82.69
16355;BME280;8287;51.644;8.494;2023-04-15T04:11:29;99698.34;;;6.04;82.79
16355;BME280;8287;51.644;8.494;2023-04-15T04:13:57;99698.63;;;6.02;83.31
16355;BME280;8287;51.644;8.494;2023-04-15T04:16:23;99696.28;;;6.01;82.60
16355;BME280;8287;51.644;8.494;2023-04-15T04:18:52;99696.78;;;6.03;82.39
16355;BME280;8287;51.644;8.494;2023-04-15T04:21:18;99694.63;;;6.05;81.69
16355;BME280;8287;51.644;8.494;2023-04-15T04:23:45;99693.50;;;6.11;80.72
16355;BME280;8287;51.644;8.494;2023-04-15T04:26:12;99696.88;;;6.11;81.45
16355;BME280;8287;51.644;8.494;2023-04-15T04:28:39;99694.97;;;6.17;81.24
16355;BME280;8287;51.644;8.494;2023-04-15T04:31:06;99688.63;;;6.18;81.16
16355;BME280;8287;51.644;8.494;2023-04-15T04:33:32;99686.88;;;6.27;79.50
16355;BME280;8287;51.644;8.494;2023-04-15T04:36:00;99688.16;;;6.29;79.13
16355;BME280;8287;51.644;8.494;2023-04-15T04:38:27;99688.84;;;6.35;78.87
16355;BME280;8287;51.644;8.494;2023-04-15T04:40:53;99694.88;;;6.35;78.74
16355;BME280;8287;51.644;8.494;2023-04-15T04:43:20;99701.00;;;6.31;79.77
16355;BME280;8287;51.644;8.494;2023-04-15T04:45:47;99702.66;;;6.27;80.35
16355;BME280;8287;51.644;8.494;2023-04-15T04:48:13;99698.47;;;6.26;81.06
16355;BME280;8287;51.644;8.494;2023-04-15T04:50:40;99701.13;;;6.26;81.10
16355;BME280;8287;51.644;8.494;2023-04-15T04:53:08;99710.84;;;6.25;81.58
16355;BME280;8287;51.644;8.494;2023-04-15T04:55:34;99708.13;;;6.30;82.32
16355;BME280;8287;51.644;8.494;2023-04-15T04:58:01;99702.88;;;6.30;82.33
16355;BME280;8287;51.644;8.494;2023-04-15T05:00:28;99705.91;;;6.37;81.93
16355;BME280;8287;51.644;8.494;2023-04-15T05:02:54;99703.97;;;6.43;80.71
16355;BME280;8287;51.644;8.494;2023-04-15T05:05:21;99701.72;;;6.49;79.87
16355;BME280;8287;51.644;8.494;2023-04-15T05:07:48;99707.16;;;6.53;80.52
16355;BME280;8287;51.644;8.494;2023-04-15T05:10:16;99708.91;;;6.57;81.10
16355;BME280;8287;51.644;8.494;2023-04-15T05:12:43;99708.53;;;6.64;80.95
16355;BME280;8287;51.644;8.494;2023-04-15T05:15:10;99712.81;;;6.73;80.06
16355;BME280;8287;51.644;8.494;2023-04-15T05:17:36;99714.88;;;6.76;79.86
16355;BME280;8287;51.644;8.494;2023-04-15T05:20:04;99712.72;;;6.78;80.66
16355;BME280;8287;51.644;8.494;2023-04-15T05:22:30;99717.91;;;6.83;80.49
16355;BME280;8287;51.644;8.494;2023-04-15T05:24:57;99721.00;;;6.85;80.68
16355;BME280;8287;51.644;8.494;2023-04-15T05:27:25;99713.19;;;6.94;80.77
16355;BME280;8287;51.644;8.494;2023-04-15T05:29:51;99728.00;;;7.03;80.90
16355;BME280;8287;51.644;8.494;2023-04-15T05:32:18;99717.94;;;7.05;80.55
16355;BME280;8287;51.644;8.494;2023-04-15T05:34:44;99724.69;;;7.11;80.92
16355;BME280;8287;51.644;8.494;2023-04-15T05:37:11;99726.44;;;7.16;81.29
16355;BME280;8287;51.644;8.494;2023-04-15T05:39:37;99727.56;;;7.23;81.12
16355;BME280;8287;51.644;8.494;2023-04-15T05:42:04;99720.94;;;7.26;81.18
16355;BME280;8287;51.644;8.494;2023-04-15T05:44:32;99724.22;;;7.31;80.84
16355;BME280;8287;51.644;8.494;2023-04-15T05:46:59;99737.31;;;7.36;81.52
16355;BME280;8287;51.644;8.494;2023-04-15T05:49:27;99730.88;;;7.42;81.70
16355;BME280;8287;51.644;8.494;2023-04-15T05:51:54;99736.47;;;7.49;81.73
16355;BME280;8287;51.644;8.494;2023-04-15T05:54:20;99732.78;;;7.50;81.60
16355;BME280;8287;51.644;8.494;2023-04-15T05:56:47;99743.69;;;7.57;81.95
16355;BME280;8287;51.644;8.494;2023-04-15T05:59:14;99739.56;;;7.65;82.00
16355;BME280;8287;51.644;8.494;2023-04-15T06:01:42;99742.06;;;7.70;82.36
16355;BME280;8287;51.644;8.494;2023-04-15T06:04:09;99747.25;;;7.75;82.06
16355;BME280;8287;51.644;8.494;2023-04-15T06:06:35;99755.81;;;7.80;82.14
16355;BME280;8287;51.644;8.494;2023-04-15T06:09:02;99762.06;;;7.84;82.22
16355;BME280;8287;51.644;8.494;2023-04-15T06:11:29;99756.34;;;7.91;82.84
16355;BME280;8287;51.644;8.494;2023-04-15T06:13:56;99751.13;;;7.99;81.83
16355;BME280;8287;51.644;8.494;2023-04-15T06:16:22;99754.31;;;8.10;82.20
16355;BME280;8287;51.644;8.494;2023-04-15T06:18:50;99755.97;;;8.19;82.67
16355;BME280;8287;51.644;8.494;2023-04-15T06:21:17;99756.50;;;8.30;82.25
16355;BME280;8287;51.644;8.494;2023-04-15T06:23:43;99760.88;;;8.43;82.06
16355;BME280;8287;51.644;8.494;2023-04-15T06:26:10;99759.97;;;8.47;82.06
16355;BME280;8287;51.644;8.494;2023-04-15T06:28:37;99759.72;;;8.57;83.02
16355;BME280;8287;51.644;8.494;2023-04-15T06:31:03;99766.59;;;8.67;83.02
16355;BME280;8287;51.644;8.494;2023-04-15T06:33:30;99767.22;;;8.72;83.38
16355;BME280;8287;51.644;8.494;2023-04-15T06:35:58;99755.47;;;8.78;83.51
16355;BME280;8287;51.644;8.494;2023-04-15T06:38:25;99765.75;;;8.88;83.75
16355;BME280;8287;51.644;8.494;2023-04-15T06:40:51;99768.72;;;8.95;83.41
16355;BME280;8287;51.644;8.494;2023-04-15T06:43:18;99772.78;;;9.01;83.89
16355;BME280;8287;51.644;8.494;2023-04-15T06:45:45;99782.91;;;9.08;83.67
16355;BME280;8287;51.644;8.494;2023-04-15T06:48:11;99780.09;;;9.13;83.70
16355;BME280;8287;51.644;8.494;2023-04-15T06:50:38;99782.56;;;9.09;83.73
16355;BME280;8287;51.644;8.494;2023-04-15T06:53:06;99777.63;;;9.16;83.72
16355;BME280;8287;51.644;8.494;2023-04-15T06:55:32;99774.53;;;9.14;83.96
16355;BME280;8287;51.644;8.494;2023-04-15T06:57:59;99777.31;;;9.18;83.42
16355;BME280;8287;51.644;8.494;2023-04-15T07:00:25;99778.41;;;9.25;83.48
16355;BME280;8287;51.644;8.494;2023-04-15T07:02:53;99780.94;;;9.30;83.88
16355;BME280;8287;51.644;8.494;2023-04-15T07:05:20;99778.91;;;9.36;83.65
16355;BME280;8287;51.644;8.494;2023-04-15T07:07:47;99773.78;;;9.39;83.54
16355;BME280;8287;51.644;8.494;2023-04-15T07:10:16;99775.19;;;9.37;83.62
16355;BME280;8287;51.644;8.494;2023-04-15T07:12:42;99778.16;;;9.44;82.97
16355;BME280;8287;51.644;8.494;2023-04-15T07:15:09;99782.66;;;9.52;82.68
16355;BME280;8287;51.644;8.494;2023-04-15T07:17:36;99785.34;;;9.60;82.62
16355;BME280;8287;51.644;8.494;2023-04-15T07:20:03;99777.41;;;9.60;82.77
16355;BME280;8287;51.644;8.494;2023-04-15T07:22:30;99783.13;;;9.70;82.43
16355;BME280;8287;51.644;8.494;2023-04-15T07:24:56;99778.47;;;9.76;82.52
16355;BME280;8287;51.644;8.494;2023-04-15T07:27:24;99789.22;;;9.79;82.71
16355;BME280;8287;51.644;8.494;2023-04-15T07:29:51;99786.72;;;9.83;82.67
16355;BME280;8287;51.644;8.494;2023-04-15T07:32:18;99776.13;;;9.83;82.82
16355;BME280;8287;51.644;8.494;2023-04-15T07:34:44;99781.28;;;9.88;82.25
16355;BME280;8287;51.644;8.494;2023-04-15T07:37:11;99792.63;;;9.88;82.31
16355;BME280;8287;51.644;8.494;2023-04-15T07:39:37;99784.69;;;9.97;82.35
16355;BME280;8287;51.644;8.494;2023-04-15T07:42:04;99790.16;;;10.00;82.59
16355;BME280;8287;51.644;8.494;2023-04-15T07:44:32;99789.25;;;10.05;82.55
16355;BME280;8287;51.644;8.494;2023-04-15T07:46:59;99791.25;;;10.08;82.83
16355;BME280;8287;51.644;8.494;2023-04-15T07:49:25;99786.25;;;10.15;82.73
16355;BME280;8287;51.644;8.494;2023-04-15T07:51:52;99791.09;;;10.13;83.10
16355;BME280;8287;51.644;8.494;2023-04-15T07:54:19;99793.13;;;10.16;83.45
16355;BME280;8287;51.644;8.494;2023-04-15T07:56:45;99792.97;;;10.21;83.50
16355;BME280;8287;51.644;8.494;2023-04-15T07:59:12;99791.56;;;10.23;83.15
16355;BME280;8287;51.644;8.494;2023-04-15T08:01:43;99785.94;;;10.33;82.67
16355;BME280;8287;51.644;8.494;2023-04-15T08:04:09;99792.94;;;10.38;83.02
16355;BME280;8287;51.644;8.494;2023-04-15T08:06:36;99798.38;;;10.41;83.07
16355;BME280;8287;51.644;8.494;2023-04-15T08:09:04;99790.88;;;10.43;82.63
16355;BME280;8287;51.644;8.494;2023-04-15T08:11:30;99798.81;;;10.43;82.50
16355;BME280;8287;51.644;8.494;2023-04-15T08:13:57;99800.53;;;10.48;82.84
16355;BME280;8287;51.644;8.494;2023-04-15T08:16:25;99795.88;;;10.45;82.96
16355;BME280;8287;51.644;8.494;2023-04-15T08:18:55;99802.09;;;10.49;82.52
16355;BME280;8287;51.644;8.494;2023-04-15T08:21:22;99801.13;;;10.53;82.75
16355;BME280;8287;51.644;8.494;2023-04-15T08:23:50;99799.72;;;10.56;82.82
16355;BME280;8287;51.644;8.494;2023-04-15T08:26:17;99804.09;;;10.60;82.86
16355;BME280;8287;51.644;8.494;2023-04-15T08:28:44;99797.38;;;10.63;83.17
16355;BME280;8287;51.644;8.494;2023-04-15T08:31:12;99792.22;;;10.66;83.31
16355;BME280;8287;51.644;8.494;2023-04-15T08:33:39;99791.59;;;10.69;83.64
16355;BME280;8287;51.644;8.494;2023-04-15T08:36:07;99795.94;;;10.74;82.67
16355;BME280;8287;51.644;8.494;2023-04-15T08:38:34;99802.78;;;10.75;82.96
16355;BME280;8287;51.644;8.494;2023-04-15T08:41:06;99805.63;;;10.70;83.23
16355;BME280;8287;51.644;8.494;2023-04-15T08:43:34;99813.72;;;10.65;83.88
16355;BME280;8287;51.644;8.494;2023-04-15T08:46:01;99805.78;;;10.65;84.10
16355;BME280;8287;51.644;8.494;2023-04-15T08:48:32;99807.47;;;10.69;83.76
16355;BME280;8287;51.644;8.494;2023-04-15T08:50:58;99809.44;;;10.35;85.93
16355;BME280;8287;51.644;8.494;2023-04-15T08:53:28;99811.13;;;10.48;85.96
16355;BME280;8287;51.644;8.494;2023-04-15T08:55:56;99813.81;;;9.63;88.56
16355;BME280;8287;51.644;8.494;2023-04-15T08:58:23;99807.66;;;9.29;91.81
16355;BME280;8287;51.644;8.494;2023-04-15T09:00:50;99803.19;;;9.55;92.88
16355;BME280;8287;51.644;8.494;2023-04-15T09:03:17;99810.38;;;9.54;92.23
16355;BME280;8287;51.644;8.494;2023-04-15T09:05:44;99816.13;;;9.56;93.50
16355;BME280;8287;51.644;8.494;2023-04-15T09:08:12;99819.25;;;9.75;93.04
16355;BME280;8287;51.644;8.494;2023-04-15T09:10:39;99820.34;;;9.74;92.57
16355;BME280;8287;51.644;8.494;2023-04-15T09:13:06;99823.16;;;10.28;91.04
16355;BME280;8287;51.644;8.494;2023-04-15T09:15:37;99820.84;;;10.10;90.62
16355;BME280;8287;51.644;8.494;2023-04-15T09:18:04;99826.72;;;10.41;89.14
16355;BME280;8287;51.644;8.494;2023-04-15T09:20:37;99824.81;;;10.50;87.45
16355;BME280;8287;51.644;8.494;2023-04-15T09:23:11;99828.94;;;10.22;87.60
16355;BME280;8287;51.644;8.494;2023-04-15T09:25:40;99835.00;;;10.31;87.00
16355;BME280;8287;51.644;8.494;2023-04-15T09:28:07;99835.78;;;10.23;88.92
16355;BME280;8287;51.644;8.494;2023-04-15T09:30:33;99841.84;;;10.40;87.56
16355;BME280;8287;51.644;8.494;2023-04-15T09:33:02;99845.25;;;10.49;87.29
16355;BME280;8287;51.644;8.494;2023-04-15T09:35:32;99846.66;;;10.47;87.82
16355;BME280;8287;51.644;8.494;2023-04-15T09:38:04;99844.97;;;10.25;88.14
16355;BME280;8287;51.644;8.494;2023-04-15T09:40:32;99862.72;;;10.08;88.54
16355;BME280;8287;51.644;8.494;2023-04-15T09:43:01;99858.09;;;9.49;91.66
16355;BME280;8287;51.644;8.494;2023-04-15T09:45:30;99857.41;;;9.82;90.61
16355;BME280;8287;51.644;8.494;2023-04-15T09:47:57;99861.72;;;9.62;92.26
16355;BME280;8287;51.644;8.494;2023-04-15T09:50:26;99855.19;;;9.76;92.14
16355;BME280;8287;51.644;8.494;2023-04-15T09:52:54;99854.53;;;9.54;92.83
16355;BME280;8287;51.644;8.494;2023-04-15T09:55:21;99866.25;;;9.78;92.18
16355;BME280;8287;51.644;8.494;2023-04-15T09:57:47;99856.03;;;10.10;91.28
16355;BME280;8287;51.644;8.494;2023-04-15T10:00:16;99859.31;;;10.24;89.96
16355;BME280;8287;51.644;8.494;2023-04-15T10:02:42;99855.06;;;10.49;88.72
16355;BME280;8287;51.644;8.494;2023-04-15T10:05:10;99864.09;;;10.48;88.43
16355;BME280;8287;51.644;8.494;2023-04-15T10:07:39;99853.81;;;10.55;87.93
16355;BME280;8287;51.644;8.494;2023-04-15T10:10:07;99856.91;;;10.57;88.67
16355;BME280;8287;51.644;8.494;2023-04-15T10:12:36;99858.69;;;10.36;89.24
16355;BME280;8287;51.644;8.494;2023-04-15T10:15:04;99864.13;;;10.14;89.46
16355;BME280;8287;51.644;8.494;2023-04-15T10:17:33;99869.56;;;10.00;91.15
16355;BME280;8287;51.644;8.494;2023-04-15T10:20:02;99855.72;;;10.29;90.25
16355;BME280;8287;51.644;8.494;2023-04-15T10:22:30;99866.28;;;10.46;89.98
16355;BME280;8287;51.644;8.494;2023-04-15T10:24:58;99875.00;;;10.55;89.55
16355;BME280;8287;51.644;8.494;2023-04-15T10:27:26;99871.25;;;10.56;89.56
16355;BME280;8287;51.644;8.494;2023-04-15T10:29:53;99876.69;;;10.68;89.54
16355;BME280;8287;51.644;8.494;2023-04-15T10:32:20;99868.88;;;10.71;89.40
16355;BME280;8287;51.644;8.494;2023-04-15T10:34:49;99867.06;;;10.55;89.62
16355;BME280;8287;51.644;8.494;2023-04-15T10:37:20;99874.19;;;10.71;89.25
16355;BME280;8287;51.644;8.494;2023-04-15T10:39:46;99876.56;;;10.56;90.13
16355;BME280;8287;51.644;8.494;2023-04-15T10:42:14;99874.97;;;10.72;89.74
16355;BME280;8287;51.644;8.494;2023-04-15T10:44:42;99876.38;;;10.78;89.38
16355;BME280;8287;51.644;8.494;2023-04-15T10:47:10;99883.81;;;10.84;88.86
16355;BME280;8287;51.644;8.494;2023-04-15T10:49:45;99879.44;;;10.88;89.67
16355;BME280;8287;51.644;8.494;2023-04-15T10:52:15;99878.03;;;10.91;89.15
16355;BME280;8287;51.644;8.494;2023-04-15T10:54:42;99870.38;;;10.89;89.28
16355;BME280;8287;51.644;8.494;2023-04-15T10:57:14;99873.50;;;10.91;89.39
16355;BME280;8287;51.644;8.494;2023-04-15T11:00:08;99880.81;;;10.94;89.51
16355;BME280;8287;51.644;8.494;2023-04-15T11:02:46;99878.97;;;10.95;90.07
16355;BME280;8287;51.644;8.494;2023-04-15T11:05:13;99883.78;;;10.93;90.34
16355;BME280;8287;51.644;8.494;2023-04-15T11:07:49;99875.66;;;10.98;90.38
16355;BME280;8287;51.644;8.494;2023-04-15T11:10:49;99879.72;;;10.95;90.42
16355;BME280;8287;51.644;8.494;2023-04-15T11:13:20;99884.56;;;10.93;90.77
16355;BME280;8287;51.644;8.494;2023-04-15T11:15:48;99875.53;;;10.94;90.59
16355;BME280;8287;51.644;8.494;2023-04-15T11:18:17;99885.66;;;10.92;91.48
16355;BME280;8287;51.644;8.494;2023-04-15T11:20:45;99888.00;;;10.94;90.88
16355;BME280;8287;51.644;8.494;2023-04-15T11:23:14;99880.50;;;10.96;91.14
16355;BME280;8287;51.644;8.494;2023-04-15T11:25:42;99885.47;;;10.97;91.66
16355;BME280;8287;51.644;8.494;2023-04-15T11:28:09;99893.59;;;11.01;92.17
16355;BME280;8287;51.644;8.494;2023-04-15T11:30:37;99894.22;;;10.98;92.09
16355;BME280;8287;51.644;8.494;2023-04-15T11:33:06;99890.31;;;10.95;92.09
16355;BME280;8287;51.644;8.494;2023-04-15T11:35:33;99898.28;;;11.04;92.04
16355;BME280;8287;51.644;8.494;2023-04-15T11:38:02;99899.97;;;11.08;92.31
16355;BME280;8287;51.644;8.494;2023-04-15T11:40:31;99906.03;;;11.09;92.06
16355;BME280;8287;51.644;8.494;2023-04-15T11:43:03;99904.63;;;11.11;91.93
16355;BME280;8287;51.644;8.494;2023-04-15T11:45:30;99910.53;;;11.17;91.71
16355;BME280;8287;51.644;8.494;2023-04-15T11:48:04;99913.63;;;11.19;91.71
16355;BME280;8287;51.644;8.494;2023-04-15T11:50:31;99918.47;;;11.17;92.08
16355;BME280;8287;51.644;8.494;2023-04-15T11:52:59;99929.91;;;11.09;91.95
16355;BME280;8287;51.644;8.494;2023-04-15T11:55:26;99925.69;;;11.08;92.53
16355;BME280;8287;51.644;8.494;2023-04-15T11:58:07;99927.38;;;11.12;92.08
16355;BME280;8287;51.644;8.494;2023-04-15T12:00:34;99923.63;;;11.13;92.18
16355;BME280;8287;51.644;8.494;2023-04-15T12:03:11;99934.25;;;11.13;92.76
16355;BME280;8287;51.644;8.494;2023-04-15T12:06:01;99951.56;;;11.19;92.56
16355;BME280;8287;51.644;8.494;2023-04-15T12:08:49;99940.78;;;11.16;93.07
16355;BME280;8287;51.644;8.494;2023-04-15T12:11:17;99935.81;;;11.14;92.87
16355;BME280;8287;51.644;8.494;2023-04-15T12:13:46;99942.53;;;11.12;92.35
16355;BME280;8287;51.644;8.494;2023-04-15T12:16:16;99939.25;;;11.15;92.49
16355;BME280;8287;51.644;8.494;2023-04-15T12:18:44;99947.84;;;11.12;92.64
16355;BME280;8287;51.644;8.494;2023-04-15T12:21:12;99950.94;;;11.14;92.52
16355;BME280;8287;51.644;8.494;2023-04-15T12:23:39;99950.81;;;11.02;92.37
16355;BME280;8287;51.644;8.494;2023-04-15T12:26:05;99950.00;;;11.10;92.91
16355;BME280;8287;51.644;8.494;2023-04-15T12:28:33;99957.81;;;11.15;92.51
16355;BME280;8287;51.644;8.494;2023-04-15T12:31:07;99956.25;;;11.14;92.17
16355;BME280;8287;51.644;8.494;2023-04-15T12:33:34;99959.34;;;11.16;92.11
16355;BME280;8287;51.644;8.494;2023-04-15T12:36:01;99963.09;;;11.15;92.89
16355;BME280;8287;51.644;8.494;2023-04-15T12:38:28;99965.59;;;11.20;92.87
16355;BME280;8287;51.644;8.494;2023-04-15T12:40:55;99966.84;;;11.14;92.93
16355;BME280;8287;51.644;8.494;2023-04-15T12:43:22;99963.41;;;11.22;92.09
16355;BME280;8287;51.644;8.494;2023-04-15T12:45:48;99971.81;;;11.24;92.51
16355;BME280;8287;51.644;8.494;2023-04-15T12:48:16;99970.59;;;11.13;92.58
16355;BME280;8287;51.644;8.494;2023-04-15T12:50:43;99975.25;;;11.16;93.00
16355;BME280;8287;51.644;8.494;2023-04-15T12:53:09;99983.22;;;11.24;93.17
16355;BME280;8287;51.644;8.494;2023-04-15T12:55:38;99989.94;;;11.22;92.80
16355;BME280;8287;51.644;8.494;2023-04-15T12:58:09;99983.22;;;11.16;93.25
16355;BME280;8287;51.644;8.494;2023-04-15T13:00:36;99983.22;;;11.16;92.89
16355;BME280;8287;51.644;8.494;2023-04-15T13:03:03;99982.13;;;11.17;93.70
16355;BME280;8287;51.644;8.494;2023-04-15T13:05:31;99985.72;;;11.12;93.20
16355;BME280;8287;51.644;8.494;2023-04-15T13:07:58;99988.22;;;11.17;94.02
16355;BME280;8287;51.644;8.494;2023-04-15T13:10:25;100001.03;;;11.15;93.63
16355;BME280;8287;51.644;8.494;2023-04-15T13:12:52;99995.84;;;11.19;94.26
16355;BME280;8287;51.644;8.494;2023-04-15T13:15:22;99989.63;;;11.15;94.40
16355;BME280;8287;51.644;8.494;2023-04-15T13:17:50;100004.91;;;11.18;94.00
16355;BME280;8287;51.644;8.494;2023-04-15T13:20:17;99999.94;;;11.08;94.84